sensor_id;sensor_type;location;lat;lon;timestamp;pressure;altitude;pressure_sealevel;temperature;humidity
23166;BME280;11751;42.700;24.170;2023-04-22T00:02:27;93658.97;;;9.71;nan
23166;BME280;11751;42.700;24.170;2023-04-22T00:04:53;93663.78;;;9.78;nan
23166;BME280;11751;42.700;24.170;2023-04-22T00:07:18;93643.09;;;9.81;nan
23166;BME280;11751;42.700;24.170;2023-04-22T00:09:44;93644.00;;;9.83;nan
23166;BME280;11751;42.700;24.170;2023-04-22T00:12:10;93640.28;;;9.88;nan
23166;BME280;11751;42.700;24.170;2023-04-22T00:14:36;93648.09;;;9.90;nan
23166;BME280;11751;42.700;24.170;2023-04-22T00:17:01;93652.59;;;9.93;nan
23166;BME280;11751;42.700;24.170;2023-04-22T00:19:27;93650.31;;;9.91;nan
23166;BME280;11751;42.700;24.170;2023-04-22T00:21:53;93640.34;;;9.58;nan
23166;BME280;11751;42.700;24.170;2023-04-22T00:24:18;93652.25;;;9.66;nan
23166;BME280;11751;42.700;24.170;2023-04-22T00:26:44;93661.59;;;9.54;nan
23166;BME280;11751;42.700;24.170;2023-04-22T00:29:09;93659.16;;;9.65;nan
23166;BME280;11751;42.700;24.170;2023-04-22T00:31:34;93661.38;;;9.67;nan
23166;BME280;11751;42.700;24.170;2023-04-22T00:34:00;93661.38;;;9.67;nan
23166;BME280;11751;42.700;24.170;2023-04-22T00:36:25;93658.97;;;9.71;nan
23166;BME280;11751;42.700;24.170;2023-04-22T00:38:52;93664.91;;;9.75;nan
23166;BME280;11751;42.700;24.170;2023-04-22T00:41:17;93660.44;;;9.72;nan
23166;BME280;11751;42.700;24.170;2023-04-22T00:43:43;93662.69;;;9.73;nan
23166;BME280;11751;42.700;24.170;2023-04-22T00:46:09;93667.34;;;9.71;nan
23166;BME280;11751;42.700;24.170;2023-04-22T00:48:36;93653.56;;;9.73;nan
23166;BME280;11751;42.700;24.170;2023-04-22T00:51:02;93655.06;;;9.66;nan
23166;BME280;11751;42.700;24.170;2023-04-22T00:53:27;93651.88;;;9.55;nan
23166;BME280;11751;42.700;24.170;2023-04-22T00:55:53;93661.22;;;9.50;nan
23166;BME280;11751;42.700;24.170;2023-04-22T00:58:20;93664.75;;;9.58;nan
23166;BME280;11751;42.700;24.170;2023-04-22T01:00:46;93667.94;;;9.54;nan
23166;BME280;11751;42.700;24.170;2023-04-22T01:03:12;93662.72;;;9.36;nan
23166;BME280;11751;42.700;24.170;2023-04-22T01:05:39;93673.34;;;9.30;nan
23166;BME280;11751;42.700;24.170;2023-04-22T01:08:05;93665.72;;;9.23;nan
23166;BME280;11751;42.700;24.170;2023-04-22T01:10:30;93668.13;;;9.19;nan
23166;BME280;11751;42.700;24.170;2023-04-22T01:12:56;93660.09;;;9.01;nan
23166;BME280;11751;42.700;24.170;2023-04-22T01:15:21;93661.97;;;8.98;nan
23166;BME280;11751;42.700;24.170;2023-04-22T01:17:47;93663.28;;;9.05;nan
23166;BME280;11751;42.700;24.170;2023-04-22T01:20:12;93660.84;;;9.01;nan
23166;BME280;11751;42.700;24.170;2023-04-22T01:22:43;93655.06;;;8.99;nan
23166;BME280;11751;42.700;24.170;2023-04-22T01:25:10;93663.44;;;8.99;nan
23166;BME280;11751;42.700;24.170;2023-04-22T01:27:36;93654.91;;;8.90;nan
23166;BME280;11751;42.700;24.170;2023-04-22T01:30:04;93669.59;;;8.90;nan
23166;BME280;11751;42.700;24.170;2023-04-22T01:32:29;93657.13;;;8.91;nan
23166;BME280;11751;42.700;24.170;2023-04-22T01:34:56;93660.13;;;8.93;nan
23166;BME280;11751;42.700;24.170;2023-04-22T01:37:21;93648.56;;;8.89;nan
23166;BME280;11751;42.700;24.170;2023-04-22T01:39:47;93649.66;;;8.86;nan
23166;BME280;11751;42.700;24.170;2023-04-22T01:42:13;93657.84;;;8.77;nan
23166;BME280;11751;42.700;24.170;2023-04-22T01:44:39;93647.78;;;8.74;nan
23166;BME280;11751;42.700;24.170;2023-04-22T01:47:05;93654.13;;;8.74;nan
23166;BME280;11751;42.700;24.170;2023-04-22T01:49:30;93654.84;;;8.67;nan
23166;BME280;11751;42.700;24.170;2023-04-22T01:51:57;93655.97;;;8.64;nan
23166;BME280;11751;42.700;24.170;2023-04-22T01:54:22;93645.91;;;8.61;nan
23166;BME280;11751;42.700;24.170;2023-04-22T01:56:57;93658.00;;;8.56;nan
23166;BME280;11751;42.700;24.170;2023-04-22T01:59:23;93644.75;;;8.49;nan
23166;BME280;11751;42.700;24.170;2023-04-22T02:01:48;93650.69;;;8.39;nan
23166;BME280;11751;42.700;24.170;2023-04-22T02:04:14;93657.06;;;8.47;nan
23166;BME280;11751;42.700;24.170;2023-04-22T02:06:39;93650.88;;;8.41;nan
23166;BME280;11751;42.700;24.170;2023-04-22T02:09:05;93643.41;;;8.28;nan
23166;BME280;11751;42.700;24.170;2023-04-22T02:11:30;93646.22;;;8.36;nan
23166;BME280;11751;42.700;24.170;2023-04-22T02:13:56;93647.66;;;8.22;nan
23166;BME280;11751;42.700;24.170;2023-04-22T02:16:21;93659.22;;;8.26;nan
23166;BME280;11751;42.700;24.170;2023-04-22T02:18:47;93647.66;;;8.22;nan
23166;BME280;11751;42.700;24.170;2023-04-22T02:21:12;93648.03;;;8.18;nan
23166;BME280;11751;42.700;24.170;2023-04-22T02:23:38;93646.31;;;8.15;nan
23166;BME280;11751;42.700;24.170;2023-04-22T02:26:04;93653.53;;;8.11;nan
23166;BME280;11751;42.700;24.170;2023-04-22T02:28:30;93651.63;;;7.98;nan
23166;BME280;11751;42.700;24.170;2023-04-22T02:30:56;93655.34;;;8.01;nan
23166;BME280;11751;42.700;24.170;2023-04-22T02:33:21;93657.41;;;8.00;nan
23166;BME280;11751;42.700;24.170;2023-04-22T02:35:47;93659.44;;;8.00;nan
23166;BME280;11751;42.700;24.170;2023-04-22T02:38:12;93646.22;;;7.93;nan
23166;BME280;11751;42.700;24.170;2023-04-22T02:40:38;93661.25;;;7.90;nan
23166;BME280;11751;42.700;24.170;2023-04-22T02:43:03;93651.16;;;7.79;nan
23166;BME280;11751;42.700;24.170;2023-04-22T02:45:29;93660.78;;;7.71;nan
23166;BME280;11751;42.700;24.170;2023-04-22T02:47:54;93657.19;;;7.63;nan
23166;BME280;11751;42.700;24.170;2023-04-22T02:50:20;93656.47;;;7.63;nan
23166;BME280;11751;42.700;24.170;2023-04-22T02:52:45;93664.41;;;7.59;nan
23166;BME280;11751;42.700;24.170;2023-04-22T02:55:10;93668.16;;;7.61;nan
23166;BME280;11751;42.700;24.170;2023-04-22T02:57:36;93653.84;;;7.57;nan
23166;BME280;11751;42.700;24.170;2023-04-22T03:00:02;93664.47;;;7.66;nan
23166;BME280;11751;42.700;24.170;2023-04-22T03:02:28;93662.97;;;7.65;nan
23166;BME280;11751;42.700;24.170;2023-04-22T03:04:54;93662.41;;;7.66;nan
23166;BME280;11751;42.700;24.170;2023-04-22T03:07:19;93665.97;;;7.67;nan
23166;BME280;11751;42.700;24.170;2023-04-22T03:09:45;93665.47;;;7.48;nan
23166;BME280;11751;42.700;24.170;2023-04-22T03:12:10;93662.69;;;7.48;nan
23166;BME280;11751;42.700;24.170;2023-04-22T03:14:35;93669.94;;;7.51;nan
23166;BME280;11751;42.700;24.170;2023-04-22T03:17:01;93655.81;;;7.49;nan
23166;BME280;11751;42.700;24.170;2023-04-22T03:19:26;93666.63;;;7.53;nan
23166;BME280;11751;42.700;24.170;2023-04-22T03:21:51;93670.41;;;7.63;nan
23166;BME280;11751;42.700;24.170;2023-04-22T03:24:17;93671.19;;;7.70;nan
23166;BME280;11751;42.700;24.170;2023-04-22T03:26:43;93661.91;;;7.75;nan
23166;BME280;11751;42.700;24.170;2023-04-22T03:29:08;93670.81;;;7.74;nan
23166;BME280;11751;42.700;24.170;2023-04-22T03:31:34;93664.84;;;7.70;nan
23166;BME280;11751;42.700;24.170;2023-04-22T03:33:59;93667.84;;;7.72;nan
23166;BME280;11751;42.700;24.170;2023-04-22T03:36:26;93677.91;;;7.75;nan
23166;BME280;11751;42.700;24.170;2023-04-22T03:38:51;93684.97;;;7.76;nan
23166;BME280;11751;42.700;24.170;2023-04-22T03:41:17;93687.13;;;7.70;nan
23166;BME280;11751;42.700;24.170;2023-04-22T03:43:42;93679.69;;;7.65;nan
23166;BME280;11751;42.700;24.170;2023-04-22T03:46:08;93673.72;;;7.61;nan
23166;BME280;11751;42.700;24.170;2023-04-22T03:48:33;93676.72;;;7.63;nan
23166;BME280;11751;42.700;24.170;2023-04-22T03:51:00;93687.13;;;7.63;nan
23166;BME280;11751;42.700;24.170;2023-04-22T03:53:26;93680.41;;;7.58;nan
23166;BME280;11751;42.700;24.170;2023-04-22T03:55:52;93688.94;;;7.60;nan
23166;BME280;11751;42.700;24.170;2023-04-22T03:58:18;93687.06;;;7.55;nan
23166;BME280;11751;42.700;24.170;2023-04-22T04:00:43;93689.22;;;7.49;nan
23166;BME280;11751;42.700;24.170;2023-04-22T04:03:09;93688.84;;;7.45;nan
23166;BME280;11751;42.700;24.170;2023-04-22T04:05:35;93700.69;;;7.38;nan
23166;BME280;11751;42.700;24.170;2023-04-22T04:08:00;93699.44;;;7.47;nan
23166;BME280;11751;42.700;24.170;2023-04-22T04:10:26;93692.78;;;7.50;nan
23166;BME280;11751;42.700;24.170;2023-04-22T04:12:51;93700.78;;;7.53;nan
23166;BME280;11751;42.700;24.170;2023-04-22T04:15:17;93710.13;;;7.63;nan
23166;BME280;11751;42.700;24.170;2023-04-22T04:17:48;93700.50;;;7.64;nan
23166;BME280;11751;42.700;24.170;2023-04-22T04:20:14;93699.78;;;7.71;nan
23166;BME280;11751;42.700;24.170;2023-04-22T04:22:40;93710.25;;;7.78;nan
23166;BME280;11751;42.700;24.170;2023-04-22T04:25:06;93710.72;;;7.97;nan
23166;BME280;11751;42.700;24.170;2023-04-22T04:27:31;93706.09;;;8.35;nan
23166;BME280;11751;42.700;24.170;2023-04-22T04:29:58;93712.88;;;8.61;nan
23166;BME280;11751;42.700;24.170;2023-04-22T04:32:23;93713.44;;;8.67;nan
23166;BME280;11751;42.700;24.170;2023-04-22T04:34:49;93717.25;;;9.07;nan
23166;BME280;11751;42.700;24.170;2023-04-22T04:37:15;93711.91;;;9.24;nan
23166;BME280;11751;42.700;24.170;2023-04-22T04:39:41;93716.00;;;9.53;nan
23166;BME280;11751;42.700;24.170;2023-04-22T04:42:07;93712.22;;;9.88;nan
23166;BME280;11751;42.700;24.170;2023-04-22T04:44:34;93723.97;;;10.09;nan
23166;BME280;11751;42.700;24.170;2023-04-22T04:47:00;93729.69;;;10.33;nan
23166;BME280;11751;42.700;24.170;2023-04-22T04:49:25;93728.31;;;10.56;nan
23166;BME280;11751;42.700;24.170;2023-04-22T04:51:51;93721.94;;;10.95;nan
23166;BME280;11751;42.700;24.170;2023-04-22T04:54:16;93721.31;;;11.36;nan
23166;BME280;11751;42.700;24.170;2023-04-22T04:56:42;93721.13;;;11.66;nan
23166;BME280;11751;42.700;24.170;2023-04-22T04:59:07;93727.91;;;12.04;nan
23166;BME280;11751;42.700;24.170;2023-04-22T05:01:33;93725.44;;;12.59;nan
23166;BME280;11751;42.700;24.170;2023-04-22T05:03:59;93732.69;;;12.95;nan
23166;BME280;11751;42.700;24.170;2023-04-22T05:06:24;93732.03;;;13.31;nan
23166;BME280;11751;42.700;24.170;2023-04-22T05:08:51;93729.13;;;13.74;nan
23166;BME280;11751;42.700;24.170;2023-04-22T05:11:16;93736.50;;;14.05;nan
23166;BME280;11751;42.700;24.170;2023-04-22T05:13:42;93730.06;;;14.31;nan
23166;BME280;11751;42.700;24.170;2023-04-22T05:16:07;93738.25;;;14.37;nan
23166;BME280;11751;42.700;24.170;2023-04-22T05:18:33;93736.78;;;14.73;nan
23166;BME280;11751;42.700;24.170;2023-04-22T05:20:58;93733.38;;;14.94;nan
23166;BME280;11751;42.700;24.170;2023-04-22T05:23:25;93729.78;;;15.03;nan
23166;BME280;11751;42.700;24.170;2023-04-22T05:25:50;93723.84;;;15.18;nan
23166;BME280;11751;42.700;24.170;2023-04-22T05:28:16;93718.50;;;15.22;nan
23166;BME280;11751;42.700;24.170;2023-04-22T05:30:41;93715.94;;;15.44;nan
23166;BME280;11751;42.700;24.170;2023-04-22T05:33:07;93722.03;;;15.50;nan
23166;BME280;11751;42.700;24.170;2023-04-22T05:35:33;93712.22;;;15.51;nan
23166;BME280;11751;42.700;24.170;2023-04-22T05:37:59;93727.84;;;15.34;nan
23166;BME280;11751;42.700;24.170;2023-04-22T05:40:24;93712.00;;;15.29;nan
23166;BME280;11751;42.700;24.170;2023-04-22T05:42:50;93714.97;;;15.31;nan
23166;BME280;11751;42.700;24.170;2023-04-22T05:45:15;93713.78;;;15.24;nan
23166;BME280;11751;42.700;24.170;2023-04-22T05:47:41;93719.97;;;15.23;nan
23166;BME280;11751;42.700;24.170;2023-04-22T05:50:07;93720.94;;;14.87;nan
23166;BME280;11751;42.700;24.170;2023-04-22T05:52:33;93712.28;;;14.95;nan
23166;BME280;11751;42.700;24.170;2023-04-22T05:54:58;93723.28;;;14.91;nan
23166;BME280;11751;42.700;24.170;2023-04-22T05:57:23;93712.88;;;14.84;nan
23166;BME280;11751;42.700;24.170;2023-04-22T05:59:49;93714.09;;;15.00;nan
23166;BME280;11751;42.700;24.170;2023-04-22T06:02:15;93716.56;;;15.15;nan
23166;BME280;11751;42.700;24.170;2023-04-22T06:04:40;93712.75;;;15.01;nan
23166;BME280;11751;42.700;24.170;2023-04-22T06:07:06;93714.81;;;14.81;nan
23166;BME280;11751;42.700;24.170;2023-04-22T06:09:31;93708.63;;;14.83;nan
23166;BME280;11751;42.700;24.170;2023-04-22T06:11:56;93721.22;;;14.63;nan
23166;BME280;11751;42.700;24.170;2023-04-22T06:14:22;93714.41;;;14.75;nan
23166;BME280;11751;42.700;24.170;2023-04-22T06:16:47;93721.81;;;14.90;nan
23166;BME280;11751;42.700;24.170;2023-04-22T06:19:14;93714.84;;;14.91;nan
23166;BME280;11751;42.700;24.170;2023-04-22T06:21:40;93721.66;;;14.88;nan
23166;BME280;11751;42.700;24.170;2023-04-22T06:24:07;93714.97;;;14.74;nan
23166;BME280;11751;42.700;24.170;2023-04-22T06:26:34;93725.06;;;14.77;nan
23166;BME280;11751;42.700;24.170;2023-04-22T06:29:01;93713.34;;;14.71;nan
23166;BME280;11751;42.700;24.170;2023-04-22T06:31:29;93722.53;;;14.90;nan
23166;BME280;11751;42.700;24.170;2023-04-22T06:33:55;93725.50;;;15.11;nan
23166;BME280;11751;42.700;24.170;2023-04-22T06:36:20;93728.31;;;15.21;nan
23166;BME280;11751;42.700;24.170;2023-04-22T06:38:46;93719.84;;;15.30;nan
23166;BME280;11751;42.700;24.170;2023-04-22T06:41:12;93714.00;;;15.56;nan
23166;BME280;11751;42.700;24.170;2023-04-22T06:43:38;93724.97;;;15.52;nan
23166;BME280;11751;42.700;24.170;2023-04-22T06:46:03;93718.44;;;15.59;nan
23166;BME280;11751;42.700;24.170;2023-04-22T06:48:29;93720.50;;;15.68;nan
23166;BME280;11751;42.700;24.170;2023-04-22T06:50:54;93719.22;;;15.90;nan
23166;BME280;11751;42.700;24.170;2023-04-22T06:53:21;93725.69;;;16.02;nan
23166;BME280;11751;42.700;24.170;2023-04-22T06:55:47;93723.97;;;16.18;nan
23166;BME280;11751;42.700;24.170;2023-04-22T06:58:12;93725.09;;;16.34;nan
23166;BME280;11751;42.700;24.170;2023-04-22T07:00:37;93724.72;;;16.49;nan
23166;BME280;11751;42.700;24.170;2023-04-22T07:03:03;93716.34;;;16.30;nan
23166;BME280;11751;42.700;24.170;2023-04-22T07:05:28;93715.69;;;16.41;nan
23166;BME280;11751;42.700;24.170;2023-04-22T07:07:54;93722.16;;;16.53;nan
23166;BME280;11751;42.700;24.170;2023-04-22T07:10:19;93702.63;;;15.75;nan
23166;BME280;11751;42.700;24.170;2023-04-22T07:12:45;93722.41;;;16.36;nan
23166;BME280;11751;42.700;24.170;2023-04-22T07:15:10;93717.03;;;16.40;nan
23166;BME280;11751;42.700;24.170;2023-04-22T07:17:36;93724.97;;;16.32;nan
23166;BME280;11751;42.700;24.170;2023-04-22T07:20:01;93724.72;;;16.70;nan
23166;BME280;11751;42.700;24.170;2023-04-22T07:22:27;93720.94;;;16.98;nan
23166;BME280;11751;42.700;24.170;2023-04-22T07:24:52;93721.00;;;17.20;nan
23166;BME280;11751;42.700;24.170;2023-04-22T07:27:18;93720.88;;;17.18;nan
23166;BME280;11751;42.700;24.170;2023-04-22T07:29:43;93723.09;;;17.41;nan
23166;BME280;11751;42.700;24.170;2023-04-22T07:32:09;93718.16;;;17.41;nan
23166;BME280;11751;42.700;24.170;2023-04-22T07:34:34;93721.19;;;17.66;nan
23166;BME280;11751;42.700;24.170;2023-04-22T07:37:00;93715.75;;;17.70;nan
23166;BME280;11751;42.700;24.170;2023-04-22T07:39:26;93714.78;;;17.66;nan
23166;BME280;11751;42.700;24.170;2023-04-22T07:41:51;93719.22;;;17.80;nan
23166;BME280;11751;42.700;24.170;2023-04-22T07:44:17;93716.56;;;18.05;nan
23166;BME280;11751;42.700;24.170;2023-04-22T07:46:46;93723.19;;;17.98;nan
23166;BME280;11751;42.700;24.170;2023-04-22T07:49:11;93722.13;;;17.59;nan
23166;BME280;11751;42.700;24.170;2023-04-22T07:51:38;93733.34;;;17.57;nan
23166;BME280;11751;42.700;24.170;2023-04-22T07:54:04;93721.41;;;17.47;nan
23166;BME280;11751;42.700;24.170;2023-04-22T07:56:29;93721.81;;;17.32;nan
23166;BME280;11751;42.700;24.170;2023-04-22T07:58:55;93720.69;;;17.05;nan
23166;BME280;11751;42.700;24.170;2023-04-22T08:01:20;93717.97;;;16.96;nan
23166;BME280;11751;42.700;24.170;2023-04-22T08:03:45;93718.22;;;17.00;nan
23166;BME280;11751;42.700;24.170;2023-04-22T08:06:11;93713.97;;;17.42;nan
23166;BME280;11751;42.700;24.170;2023-04-22T08:08:36;93708.75;;;17.71;nan
23166;BME280;11751;42.700;24.170;2023-04-22T08:11:02;93703.97;;;18.08;nan
23166;BME280;11751;42.700;24.170;2023-04-22T08:13:27;93700.91;;;18.04;nan
23166;BME280;11751;42.700;24.170;2023-04-22T08:15:53;93701.25;;;17.76;nan
23166;BME280;11751;42.700;24.170;2023-04-22T08:18:18;93701.53;;;18.14;nan
23166;BME280;11751;42.700;24.170;2023-04-22T08:20:44;93692.41;;;18.27;nan
23166;BME280;11751;42.700;24.170;2023-04-22T08:23:10;93695.34;;;17.83;nan
23166;BME280;11751;42.700;24.170;2023-04-22T08:25:36;93695.97;;;18.04;nan
23166;BME280;11751;42.700;24.170;2023-04-22T08:28:01;93689.81;;;18.54;nan
23166;BME280;11751;42.700;24.170;2023-04-22T08:30:27;93694.28;;;18.34;nan
23166;BME280;11751;42.700;24.170;2023-04-22T08:32:53;93698.78;;;18.62;nan
23166;BME280;11751;42.700;24.170;2023-04-22T08:35:18;93687.09;;;18.92;nan
23166;BME280;11751;42.700;24.170;2023-04-22T08:37:44;93693.63;;;19.31;nan
23166;BME280;11751;42.700;24.170;2023-04-22T08:40:09;93688.06;;;19.33;nan
23166;BME280;11751;42.700;24.170;2023-04-22T08:42:36;93688.38;;;19.50;nan
23166;BME280;11751;42.700;24.170;2023-04-22T08:45:05;93685.16;;;19.44;nan
23166;BME280;11751;42.700;24.170;2023-04-22T08:47:31;93688.69;;;19.81;nan
23166;BME280;11751;42.700;24.170;2023-04-22T08:50:01;93690.28;;;19.59;nan
23166;BME280;11751;42.700;24.170;2023-04-22T08:52:29;93701.16;;;19.01;nan
23166;BME280;11751;42.700;24.170;2023-04-22T08:54:55;93702.94;;;18.72;nan
23166;BME280;11751;42.700;24.170;2023-04-22T08:57:21;93706.00;;;17.50;nan
23166;BME280;11751;42.700;24.170;2023-04-22T08:59:47;93692.34;;;16.61;nan
23166;BME280;11751;42.700;24.170;2023-04-22T09:02:18;93709.31;;;16.10;nan
23166;BME280;11751;42.700;24.170;2023-04-22T09:04:49;93708.81;;;15.53;nan
23166;BME280;11751;42.700;24.170;2023-04-22T09:07:23;93719.56;;;14.88;nan
23166;BME280;11751;42.700;24.170;2023-04-22T09:09:49;93714.97;;;14.55;nan
23166;BME280;11751;42.700;24.170;2023-04-22T09:12:15;93723.88;;;14.61;nan
23166;BME280;11751;42.700;24.170;2023-04-22T09:14:43;93718.53;;;14.46;nan
23166;BME280;11751;42.700;24.170;2023-04-22T09:17:09;93716.03;;;14.69;nan
23166;BME280;11751;42.700;24.170;2023-04-22T09:19:35;93719.44;;;14.77;nan
23166;BME280;11751;42.700;24.170;2023-04-22T09:22:00;93721.44;;;15.24;nan
23166;BME280;11751;42.700;24.170;2023-04-22T09:24:26;93731.84;;;15.49;nan
23166;BME280;11751;42.700;24.170;2023-04-22T09:26:54;93724.78;;;15.69;nan
23166;BME280;11751;42.700;24.170;2023-04-22T09:29:19;93721.34;;;15.80;nan
23166;BME280;11751;42.700;24.170;2023-04-22T09:31:48;93723.69;;;15.44;nan
23166;BME280;11751;42.700;24.170;2023-04-22T09:34:14;93720.88;;;15.35;nan
23166;BME280;11751;42.700;24.170;2023-04-22T09:36:42;93725.78;;;15.25;nan
23166;BME280;11751;42.700;24.170;2023-04-22T09:39:08;93713.44;;;15.39;nan
23166;BME280;11751;42.700;24.170;2023-04-22T09:41:38;93728.91;;;15.78;nan
23166;BME280;11751;42.700;24.170;2023-04-22T09:44:08;93727.81;;;15.92;nan
23166;BME280;11751;42.700;24.170;2023-04-22T09:46:34;93721.81;;;16.07;nan
23166;BME280;11751;42.700;24.170;2023-04-22T09:49:00;93720.94;;;15.65;nan
23166;BME280;11751;42.700;24.170;2023-04-22T09:51:26;93730.41;;;15.30;nan
23166;BME280;11751;42.700;24.170;2023-04-22T09:53:58;93723.47;;;15.70;nan
23166;BME280;11751;42.700;24.170;2023-04-22T09:59:05;93710.53;;;15.67;nan
23166;BME280;11751;42.700;24.170;2023-04-22T10:01:37;93709.34;;;15.70;nan
23166;BME280;11751;42.700;24.170;2023-04-22T10:04:08;93712.66;;;15.48;nan
23166;BME280;11751;42.700;24.170;2023-04-22T10:06:38;93706.19;;;15.36;nan
23166;BME280;11751;42.700;24.170;2023-04-22T10:09:04;93700.44;;;14.87;nan
23166;BME280;11751;42.700;24.170;2023-04-22T10:11:31;93706.94;;;15.08;nan
23166;BME280;11751;42.700;24.170;2023-04-22T10:13:57;93711.38;;;15.11;nan
23166;BME280;11751;42.700;24.170;2023-04-22T10:16:26;93698.63;;;15.20;nan
23166;BME280;11751;42.700;24.170;2023-04-22T10:18:54;93683.31;;;15.32;nan
23166;BME280;11751;42.700;24.170;2023-04-22T10:21:22;93685.06;;;15.46;nan
23166;BME280;11751;42.700;24.170;2023-04-22T10:23:48;93684.50;;;15.78;nan
23166;BME280;11751;42.700;24.170;2023-04-22T10:26:37;93687.91;;;15.77;nan
23166;BME280;11751;42.700;24.170;2023-04-22T10:29:05;93681.91;;;15.92;nan
23166;BME280;11751;42.700;24.170;2023-04-22T10:31:31;93680.78;;;16.06;nan
23166;BME280;11751;42.700;24.170;2023-04-22T10:34:17;93682.19;;;16.47;nan
23166;BME280;11751;42.700;24.170;2023-04-22T10:37:00;93676.53;;;16.47;nan
23166;BME280;11751;42.700;24.170;2023-04-22T10:39:27;93675.31;;;16.71;nan
23166;BME280;11751;42.700;24.170;2023-04-22T10:42:17;93667.31;;;17.00;nan
23166;BME280;11751;42.700;24.170;2023-04-22T10:44:50;93675.56;;;17.07;nan
23166;BME280;11751;42.700;24.170;2023-04-22T10:47:35;93679.25;;;17.30;nan
23166;BME280;11751;42.700;24.170;2023-04-22T10:55:53;93663.47;;;17.27;nan
23166;BME280;11751;42.700;24.170;2023-04-22T10:58:22;93669.63;;;16.71;nan
23166;BME280;11751;42.700;24.170;2023-04-22T11:00:51;93668.69;;;17.42;nan
23166;BME280;11751;42.700;24.170;2023-04-22T11:03:26;93660.38;;;17.90;nan
23166;BME280;11751;42.700;24.170;2023-04-22T11:06:12;93668.50;;;18.07;nan
23166;BME280;11751;42.700;24.170;2023-04-22T11:08:46;93666.66;;;17.22;nan
23166;BME280;11751;42.700;24.170;2023-04-22T11:11:12;93665.50;;;17.36;nan
23166;BME280;11751;42.700;24.170;2023-04-22T11:13:41;93664.03;;;17.58;nan
23166;BME280;11751;42.700;24.170;2023-04-22T11:16:08;93654.81;;;17.69;nan
23166;BME280;11751;42.700;24.170;2023-04-22T11:18:34;93655.31;;;17.89;nan
23166;BME280;11751;42.700;24.170;2023-04-22T11:21:06;93661.38;;;18.06;nan
23166;BME280;11751;42.700;24.170;2023-04-22T11:23:34;93653.34;;;18.37;nan
23166;BME280;11751;42.700;24.170;2023-04-22T11:26:02;93642.75;;;18.03;nan
23166;BME280;11751;42.700;24.170;2023-04-22T11:28:29;93635.34;;;17.52;nan
23166;BME280;11751;42.700;24.170;2023-04-22T11:31:03;93660.13;;;16.87;nan
23166;BME280;11751;42.700;24.170;2023-04-22T11:33:31;93663.44;;;16.84;nan
23166;BME280;11751;42.700;24.170;2023-04-22T11:35:57;93672.63;;;16.31;nan
23166;BME280;11751;42.700;24.170;2023-04-22T11:38:22;93669.66;;;16.50;nan
23166;BME280;11751;42.700;24.170;2023-04-22T11:40:48;93683.09;;;16.19;nan
23166;BME280;11751;42.700;24.170;2023-04-22T11:43:13;93675.94;;;15.97;nan
23166;BME280;11751;42.700;24.170;2023-04-22T11:45:39;93676.50;;;16.26;nan
23166;BME280;11751;42.700;24.170;2023-04-22T11:48:06;93677.97;;;16.27;nan
23166;BME280;11751;42.700;24.170;2023-04-22T11:50:34;93683.00;;;16.38;nan
23166;BME280;11751;42.700;24.170;2023-04-22T11:53:08;93684.75;;;16.43;nan
23166;BME280;11751;42.700;24.170;2023-04-22T11:55:38;93675.38;;;16.82;nan
23166;BME280;11751;42.700;24.170;2023-04-22T11:58:05;93675.78;;;17.00;nan
23166;BME280;11751;42.700;24.170;2023-04-22T12:00:36;93678.44;;;17.18;nan
23166;BME280;11751;42.700;24.170;2023-04-22T12:05:37;93677.53;;;17.37;nan
23166;BME280;11751;42.700;24.170;2023-04-22T12:08:12;93676.00;;;17.24;nan
23166;BME280;11751;42.700;24.170;2023-04-22T12:10:41;93678.41;;;17.39;nan
23166;BME280;11751;42.700;24.170;2023-04-22T12:13:08;93669.31;;;17.52;nan
23166;BME280;11751;42.700;24.170;2023-04-22T12:15:43;93668.97;;;17.69;nan
23166;BME280;11751;42.700;24.170;2023-04-22T12:18:09;93664.94;;;17.72;nan
23166;BME280;11751;42.700;24.170;2023-04-22T12:20:40;93663.06;;;17.88;nan
23166;BME280;11751;42.700;24.170;2023-04-22T12:23:13;93673.53;;;18.20;nan
23166;BME280;11751;42.700;24.170;2023-04-22T12:25:40;93658.91;;;18.35;nan
23166;BME280;11751;42.700;24.170;2023-04-22T12:28:06;93658.41;;;18.15;nan
23166;BME280;11751;42.700;24.170;2023-04-22T12:30:31;93662.34;;;18.10;nan
23166;BME280;11751;42.700;24.170;2023-04-22T12:32:57;93661.59;;;17.64;nan
23166;BME280;11751;42.700;24.170;2023-04-22T12:35:23;93670.69;;;17.51;nan
23166;BME280;11751;42.700;24.170;2023-04-22T12:37:48;93661.41;;;16.96;nan
23166;BME280;11751;42.700;24.170;2023-04-22T12:40:14;93666.00;;;17.44;nan
23166;BME280;11751;42.700;24.170;2023-04-22T12:42:39;93657.28;;;17.63;nan
23166;BME280;11751;42.700;24.170;2023-04-22T12:45:05;93662.59;;;17.80;nan
23166;BME280;11751;42.700;24.170;2023-04-22T12:47:30;93661.09;;;17.79;nan
23166;BME280;11751;42.700;24.170;2023-04-22T12:49:56;93653.91;;;17.32;nan
23166;BME280;11751;42.700;24.170;2023-04-22T12:52:24;93676.84;;;17.15;nan
23166;BME280;11751;42.700;24.170;2023-04-22T12:54:49;93661.75;;;16.90;nan
23166;BME280;11751;42.700;24.170;2023-04-22T12:57:15;93666.41;;;16.23;nan
23166;BME280;11751;42.700;24.170;2023-04-22T12:59:40;93662.31;;;16.35;nan
23166;BME280;11751;42.700;24.170;2023-04-22T13:02:06;93660.50;;;16.61;nan
23166;BME280;11751;42.700;24.170;2023-04-22T13:04:31;93657.09;;;16.95;nan
23166;BME280;11751;42.700;24.170;2023-04-22T13:06:57;93658.72;;;16.98;nan
23166;BME280;11751;42.700;24.170;2023-04-22T13:09:23;93660.16;;;16.99;nan
23166;BME280;11751;42.700;24.170;2023-04-22T13:11:49;93655.22;;;16.88;nan
23166;BME280;11751;42.700;24.170;2023-04-22T13:14:15;93662.56;;;17.13;nan
23166;BME280;11751;42.700;24.170;2023-04-22T13:16:41;93667.06;;;16.96;nan
23166;BME280;11751;42.700;24.170;2023-04-22T13:19:06;93664.47;;;16.67;nan
23166;BME280;11751;42.700;24.170;2023-04-22T13:21:32;93665.56;;;16.95;nan
23166;BME280;11751;42.700;24.170;2023-04-22T13:23:57;93664.38;;;16.98;nan